aviador You're here:

KEUF Decoded Metar

in _UNIDENTIFIED
Report Time2017-07-26 05:58:00
UTC Time2017-07-26 06:34:53
Flight Rules unknown UNKNOWN
WindCalm
VisibilityN/A
Phenomena:N/A
Clouds:Scattered 024 Hf
Expected CloudBase > 400 ft AGL from Temp-Dew spread
CeilingNone
Temp24°C (ISA +10)
Dew Point23°C (94% RH)
QNH1018 hPa
Density Alt1,598 ft
Elevation285 ft
Report Wrong Elevation
Raw Report
METAR KEUF 260558Z AUTO 00000KT SCT024 24/23 A3007 RMK AO2 SLP180 T02440233
10278 20244 403000228 56006 $=

Extra information for KEUF:More info

Metar Taf Metar & Taf Last 4 Metars F.Rules Stats Wind Profile Meteogram Temp Stats Metar ALERT Operation Metar Decoded Social comments